Terminal Aerodrome Forecast
Issued by NWS

Home | Current Version | Previous Version | Text Only | Print | Product List | Glossary Off
Versions: 1 2 3 4 5 6 7 8 9 10 11 12

015
FTUS43 KMPX 172330
TAFRNH
TAF
KRNH 172330Z 1800/1824 21005KT P6SM SKC
     FM181500 19010KT P6SM FEW250
     FM181800 22012KT P6SM SCT250
     FM182000 26012KT P6SM FEW250=

USA.gov is the U.S. government's official web portal to all federal, state and local government web resources and services.